West Stafford, Connecticut
Current Conditions -  °F | °C
As of 11:52 PM on Friday 19 Dec 2014 (Local Time) from KIJD Reporting Station
Few Clouds Few Clouds  
Wind Chill: -2°   Ceiling: Unl
Heat Index: -2°   Visibility: 10mi
Dew Point: -6°   Wind: 3mph
Humidity: 75%   Direction: 290°WNW
Pressure: 30.15"   Gusts: NA
Location:  41.9885°N, 72.2592°W
Report Text: KIJD 200452Z AUTO 29003KT 10SM FEW026 M02/M06 A3015 RMK AO2 SLP212 T10221061 400171022
Loading
Personal Weather Stations






























Interactive Weather Map New forecast layout! Learn more

10-Day Weather Forecast

Advertisements
Track Severe Weather on mobile